sensor_id;sensor_type;location;lat;lon;timestamp;pressure;altitude;pressure_sealevel;temperature;humidity
8398;BME280;4236;54.504;9.588;2022-10-16T00:01:17;100695.00;;;12.11;100.00
8398;BME280;4236;54.504;9.588;2022-10-16T00:03:45;100708.38;;;12.11;100.00
8398;BME280;4236;54.504;9.588;2022-10-16T00:06:15;100698.94;;;12.08;100.00
8398;BME280;4236;54.504;9.588;2022-10-16T00:08:43;100697.28;;;12.07;100.00
8398;BME280;4236;54.504;9.588;2022-10-16T00:11:13;100692.97;;;12.06;100.00
8398;BME280;4236;54.504;9.588;2022-10-16T00:13:43;100702.84;;;12.06;100.00
8398;BME280;4236;54.504;9.588;2022-10-16T00:16:13;100704.47;;;12.07;100.00
8398;BME280;4236;54.504;9.588;2022-10-16T00:18:41;100703.03;;;12.04;100.00
8398;BME280;4236;54.504;9.588;2022-10-16T00:21:11;100700.34;;;12.04;100.00
8398;BME280;4236;54.504;9.588;2022-10-16T00:23:39;100711.28;;;12.03;100.00
8398;BME280;4236;54.504;9.588;2022-10-16T00:26:09;100711.69;;;12.00;100.00
8398;BME280;4236;54.504;9.588;2022-10-16T00:28:37;100709.19;;;11.98;100.00
8398;BME280;4236;54.504;9.588;2022-10-16T00:31:06;100710.03;;;11.99;100.00
8398;BME280;4236;54.504;9.588;2022-10-16T00:33:36;100719.28;;;11.96;100.00
8398;BME280;4236;54.504;9.588;2022-10-16T00:36:05;100719.28;;;11.96;100.00
8398;BME280;4236;54.504;9.588;2022-10-16T00:38:33;100726.69;;;11.94;100.00
8398;BME280;4236;54.504;9.588;2022-10-16T00:41:01;100729.38;;;11.94;100.00
8398;BME280;4236;54.504;9.588;2022-10-16T00:43:35;100719.69;;;11.93;100.00
8398;BME280;4236;54.504;9.588;2022-10-16T00:46:05;100728.53;;;11.94;100.00
8398;BME280;4236;54.504;9.588;2022-10-16T00:48:36;100724.03;;;11.94;100.00
8398;BME280;4236;54.504;9.588;2022-10-16T00:51:05;100726.69;;;11.94;100.00
8398;BME280;4236;54.504;9.588;2022-10-16T00:53:33;100716.19;;;11.93;100.00
8398;BME280;4236;54.504;9.588;2022-10-16T00:56:02;100722.38;;;11.93;100.00
8398;BME280;4236;54.504;9.588;2022-10-16T00:58:29;100723.38;;;11.92;100.00
8398;BME280;4236;54.504;9.588;2022-10-16T01:00:57;100725.88;;;11.94;100.00
8398;BME280;4236;54.504;9.588;2022-10-16T01:03:27;100726.88;;;11.93;100.00
8398;BME280;4236;54.504;9.588;2022-10-16T01:06:14;100727.91;;;11.92;100.00
8398;BME280;4236;54.504;9.588;2022-10-16T01:11:50;100728.94;;;11.91;100.00
8398;BME280;4236;54.504;9.588;2022-10-16T01:14:25;100723.59;;;11.91;100.00
8398;BME280;4236;54.504;9.588;2022-10-16T01:16:58;100718.25;;;11.91;100.00
8398;BME280;4236;54.504;9.588;2022-10-16T01:19:39;100725.44;;;11.90;100.00
8398;BME280;4236;54.504;9.588;2022-10-16T01:22:11;100724.63;;;11.90;100.00
8398;BME280;4236;54.504;9.588;2022-10-16T01:24:40;100721.94;;;11.90;100.00
8398;BME280;4236;54.504;9.588;2022-10-16T01:27:13;100722.16;;;11.88;100.00
8398;BME280;4236;54.504;9.588;2022-10-16T01:29:49;100734.69;;;11.88;100.00
8398;BME280;4236;54.504;9.588;2022-10-16T01:32:23;100724.84;;;11.88;100.00
8398;BME280;4236;54.504;9.588;2022-10-16T01:34:54;100729.38;;;11.88;100.00
8398;BME280;4236;54.504;9.588;2022-10-16T01:37:31;100732.44;;;11.85;100.00
8398;BME280;4236;54.504;9.588;2022-10-16T01:40:03;100730.78;;;11.84;100.00
8398;BME280;4236;54.504;9.588;2022-10-16T01:42:36;100723.59;;;11.84;100.00
8398;BME280;4236;54.504;9.588;2022-10-16T01:45:06;100732.63;;;11.83;100.00
8398;BME280;4236;54.504;9.588;2022-10-16T01:47:35;100726.47;;;11.83;100.00
8398;BME280;4236;54.504;9.588;2022-10-16T01:50:04;100724.84;;;11.82;100.00
8398;BME280;4236;54.504;9.588;2022-10-16T01:52:35;100720.50;;;11.81;100.00
8398;BME280;4236;54.504;9.588;2022-10-16T01:55:05;100725.25;;;11.79;100.00
8398;BME280;4236;54.504;9.588;2022-10-16T01:57:36;100719.91;;;11.79;100.00
8398;BME280;4236;54.504;9.588;2022-10-16T02:00:10;100720.09;;;11.77;100.00
8398;BME280;4236;54.504;9.588;2022-10-16T02:02:40;100718.66;;;11.75;100.00
8398;BME280;4236;54.504;9.588;2022-10-16T02:05:14;100718.66;;;11.75;100.00
8398;BME280;4236;54.504;9.588;2022-10-16T02:07:43;100723.56;;;11.71;100.00
8398;BME280;4236;54.504;9.588;2022-10-16T02:10:11;100722.78;;;11.71;100.00
8398;BME280;4236;54.504;9.588;2022-10-16T02:12:43;100721.97;;;11.70;100.00
8398;BME280;4236;54.504;9.588;2022-10-16T02:15:11;100717.81;;;11.68;100.00
8398;BME280;4236;54.504;9.588;2022-10-16T02:17:39;100719.00;;;11.65;100.00
8398;BME280;4236;54.504;9.588;2022-10-16T02:20:07;100720.25;;;11.62;100.00
8398;BME280;4236;54.504;9.588;2022-10-16T02:22:38;100727.66;;;11.60;100.00
8398;BME280;4236;54.504;9.588;2022-10-16T02:25:09;100728.25;;;11.56;100.00
8398;BME280;4236;54.504;9.588;2022-10-16T02:27:43;100734.81;;;11.53;100.00
8398;BME280;4236;54.504;9.588;2022-10-16T02:30:16;100738.72;;;11.51;100.00
8398;BME280;4236;54.504;9.588;2022-10-16T02:32:47;100739.75;;;11.50;100.00
8398;BME280;4236;54.504;9.588;2022-10-16T02:35:17;100734.63;;;11.48;100.00
8398;BME280;4236;54.504;9.588;2022-10-16T02:37:46;100728.66;;;11.46;100.00
8398;BME280;4236;54.504;9.588;2022-10-16T02:40:15;100721.88;;;11.44;100.00
8398;BME280;4236;54.504;9.588;2022-10-16T02:42:50;100724.75;;;11.42;100.00
8398;BME280;4236;54.504;9.588;2022-10-16T02:45:18;100724.13;;;11.40;100.00
8398;BME280;4236;54.504;9.588;2022-10-16T02:47:46;100725.56;;;11.36;100.00
8398;BME280;4236;54.504;9.588;2022-10-16T02:50:14;100728.44;;;11.35;100.00
8398;BME280;4236;54.504;9.588;2022-10-16T02:52:41;100728.84;;;11.32;100.00
8398;BME280;4236;54.504;9.588;2022-10-16T02:55:09;100724.31;;;11.32;100.00
8398;BME280;4236;54.504;9.588;2022-10-16T02:57:36;100732.53;;;11.31;100.00
8398;BME280;4236;54.504;9.588;2022-10-16T03:00:09;100730.03;;;11.29;100.00
8398;BME280;4236;54.504;9.588;2022-10-16T03:02:38;100741.75;;;11.28;100.00
8398;BME280;4236;54.504;9.588;2022-10-16T03:05:07;100743.59;;;11.28;100.00
8398;BME280;4236;54.504;9.588;2022-10-16T03:07:35;100738.44;;;11.26;100.00
8398;BME280;4236;54.504;9.588;2022-10-16T03:10:03;100740.31;;;11.26;100.00
8398;BME280;4236;54.504;9.588;2022-10-16T03:12:31;100745.03;;;11.24;100.00
8398;BME280;4236;54.504;9.588;2022-10-16T03:14:59;100739.91;;;11.22;100.00
8398;BME280;4236;54.504;9.588;2022-10-16T03:17:28;100736.59;;;11.20;100.00
8398;BME280;4236;54.504;9.588;2022-10-16T03:19:55;100741.31;;;11.18;100.00
8398;BME280;4236;54.504;9.588;2022-10-16T03:22:23;100751.16;;;11.18;100.00
8398;BME280;4236;54.504;9.588;2022-10-16T03:24:51;100739.88;;;11.16;100.00
8398;BME280;4236;54.504;9.588;2022-10-16T03:27:18;100737.38;;;11.14;100.00
8398;BME280;4236;54.504;9.588;2022-10-16T03:29:46;100739.66;;;11.10;100.00
8398;BME280;4236;54.504;9.588;2022-10-16T03:32:14;100746.00;;;11.09;100.00
8398;BME280;4236;54.504;9.588;2022-10-16T03:34:42;100746.19;;;11.08;100.00
8398;BME280;4236;54.504;9.588;2022-10-16T03:37:10;100730.41;;;11.06;100.00
8398;BME280;4236;54.504;9.588;2022-10-16T03:39:38;100734.28;;;11.04;100.00
8398;BME280;4236;54.504;9.588;2022-10-16T03:42:05;100745.97;;;11.03;100.00
8398;BME280;4236;54.504;9.588;2022-10-16T03:44:33;100736.53;;;11.00;100.00
8398;BME280;4236;54.504;9.588;2022-10-16T03:47:00;100740.22;;;10.99;100.00
8398;BME280;4236;54.504;9.588;2022-10-16T03:49:28;100736.75;;;10.99;100.00
8398;BME280;4236;54.504;9.588;2022-10-16T03:51:57;100736.09;;;10.97;100.00
8398;BME280;4236;54.504;9.588;2022-10-16T03:54:24;100737.94;;;10.96;100.00
8398;BME280;4236;54.504;9.588;2022-10-16T03:56:52;100742.66;;;10.94;100.00
8398;BME280;4236;54.504;9.588;2022-10-16T03:59:20;100747.38;;;10.92;100.00
8398;BME280;4236;54.504;9.588;2022-10-16T04:01:47;100744.72;;;10.92;100.00
8398;BME280;4236;54.504;9.588;2022-10-16T04:04:15;100751.06;;;10.91;100.00
8398;BME280;4236;54.504;9.588;2022-10-16T04:06:42;100747.56;;;10.91;100.00
8398;BME280;4236;54.504;9.588;2022-10-16T04:09:11;100756.59;;;10.90;100.00
8398;BME280;4236;54.504;9.588;2022-10-16T04:11:39;100761.94;;;10.90;100.00
8398;BME280;4236;54.504;9.588;2022-10-16T04:14:06;100766.44;;;10.89;100.00
8398;BME280;4236;54.504;9.588;2022-10-16T04:16:34;100767.28;;;10.90;100.00
8398;BME280;4236;54.504;9.588;2022-10-16T04:19:02;100756.59;;;10.90;100.00
8398;BME280;4236;54.504;9.588;2022-10-16T04:21:30;100762.13;;;10.88;100.00
8398;BME280;4236;54.504;9.588;2022-10-16T04:23:57;100770.13;;;10.88;100.00
8398;BME280;4236;54.504;9.588;2022-10-16T04:26:26;100763.97;;;10.88;100.00
8398;BME280;4236;54.504;9.588;2022-10-16T04:28:54;100759.47;;;10.88;100.00
8398;BME280;4236;54.504;9.588;2022-10-16T04:31:21;100764.63;;;10.90;100.00
8398;BME280;4236;54.504;9.588;2022-10-16T04:33:49;100769.13;;;10.89;100.00
8398;BME280;4236;54.504;9.588;2022-10-16T04:36:17;100771.78;;;10.89;100.00
8398;BME280;4236;54.504;9.588;2022-10-16T04:38:44;100776.28;;;10.89;100.00
8398;BME280;4236;54.504;9.588;2022-10-16T04:41:12;100780.63;;;10.90;100.00
8398;BME280;4236;54.504;9.588;2022-10-16T04:43:41;100786.75;;;10.90;100.00
8398;BME280;4236;54.504;9.588;2022-10-16T04:46:08;100792.09;;;10.90;100.00
8398;BME280;4236;54.504;9.588;2022-10-16T04:48:36;100786.75;;;10.90;100.00
8398;BME280;4236;54.504;9.588;2022-10-16T04:51:04;100793.75;;;10.91;100.00
8398;BME280;4236;54.504;9.588;2022-10-16T04:53:32;100783.91;;;10.92;100.00
8398;BME280;4236;54.504;9.588;2022-10-16T04:55:59;100792.75;;;10.92;100.00
8398;BME280;4236;54.504;9.588;2022-10-16T04:58:27;100791.09;;;10.91;100.00
8398;BME280;4236;54.504;9.588;2022-10-16T05:00:56;100791.91;;;10.92;100.00
8398;BME280;4236;54.504;9.588;2022-10-16T05:03:23;100789.03;;;10.93;100.00
8398;BME280;4236;54.504;9.588;2022-10-16T05:05:51;100799.91;;;10.92;100.00
8398;BME280;4236;54.504;9.588;2022-10-16T05:08:19;100810.75;;;10.90;100.00
8398;BME280;4236;54.504;9.588;2022-10-16T05:10:46;100801.97;;;10.90;100.00
8398;BME280;4236;54.504;9.588;2022-10-16T05:13:14;100816.94;;;10.91;100.00
8398;BME280;4236;54.504;9.588;2022-10-16T05:15:42;100821.03;;;10.93;100.00
8398;BME280;4236;54.504;9.588;2022-10-16T05:18:10;100817.97;;;10.96;100.00
8398;BME280;4236;54.504;9.588;2022-10-16T05:20:38;100820.25;;;10.99;100.00
8398;BME280;4236;54.504;9.588;2022-10-16T05:23:06;100823.38;;;11.03;100.00
8398;BME280;4236;54.504;9.588;2022-10-16T05:25:33;100822.13;;;11.05;100.00
8398;BME280;4236;54.504;9.588;2022-10-16T05:28:01;100815.41;;;11.09;100.00
8398;BME280;4236;54.504;9.588;2022-10-16T05:30:29;100822.19;;;11.12;100.00
8398;BME280;4236;54.504;9.588;2022-10-16T05:32:56;100827.72;;;11.17;100.00
8398;BME280;4236;54.504;9.588;2022-10-16T05:35:25;100824.50;;;11.22;100.00
8398;BME280;4236;54.504;9.588;2022-10-16T05:37:53;100814.03;;;11.27;100.00
8398;BME280;4236;54.504;9.588;2022-10-16T05:40:20;100814.28;;;11.32;100.00
8398;BME280;4236;54.504;9.588;2022-10-16T05:42:48;100824.56;;;11.35;100.00
8398;BME280;4236;54.504;9.588;2022-10-16T05:45:16;100818.81;;;11.38;100.00
8398;BME280;4236;54.504;9.588;2022-10-16T05:47:43;100812.25;;;11.40;100.00
8398;BME280;4236;54.504;9.588;2022-10-16T05:50:11;100802.41;;;11.41;100.00
8398;BME280;4236;54.504;9.588;2022-10-16T05:52:40;100807.75;;;11.41;100.00
8398;BME280;4236;54.504;9.588;2022-10-16T05:55:08;100813.09;;;11.41;100.00
8398;BME280;4236;54.504;9.588;2022-10-16T05:57:35;100813.09;;;11.41;100.00
8398;BME280;4236;54.504;9.588;2022-10-16T06:00:04;100813.09;;;11.41;100.00
8398;BME280;4236;54.504;9.588;2022-10-16T06:02:31;100815.75;;;11.41;100.00
8398;BME280;4236;54.504;9.588;2022-10-16T06:04:59;100820.69;;;11.44;100.00
8398;BME280;4236;54.504;9.588;2022-10-16T06:07:26;100822.31;;;11.45;100.00
8398;BME280;4236;54.504;9.588;2022-10-16T06:09:56;100830.94;;;11.47;100.00
8398;BME280;4236;54.504;9.588;2022-10-16T06:12:23;100820.06;;;11.48;100.00
8398;BME280;4236;54.504;9.588;2022-10-16T06:14:51;100832.19;;;11.51;100.00
8398;BME280;4236;54.504;9.588;2022-10-16T06:17:18;100830.13;;;11.53;100.00
8398;BME280;4236;54.504;9.588;2022-10-16T06:19:46;100844.13;;;11.55;100.00
8398;BME280;4236;54.504;9.588;2022-10-16T06:22:13;100840.41;;;11.56;100.00
8398;BME280;4236;54.504;9.588;2022-10-16T06:24:42;100848.03;;;11.59;100.00
8398;BME280;4236;54.504;9.588;2022-10-16T06:27:11;100846.84;;;11.61;100.00
8398;BME280;4236;54.504;9.588;2022-10-16T06:29:39;100851.56;;;11.66;100.00
8398;BME280;4236;54.504;9.588;2022-10-16T06:32:06;100852.63;;;11.72;100.00
8398;BME280;4236;54.504;9.588;2022-10-16T06:34:34;100844.84;;;11.77;100.00
8398;BME280;4236;54.504;9.588;2022-10-16T06:37:03;100859.66;;;11.79;100.00
8398;BME280;4236;54.504;9.588;2022-10-16T06:39:30;100865.41;;;11.83;100.00
8398;BME280;4236;54.504;9.588;2022-10-16T06:41:58;100872.41;;;11.84;100.00
8398;BME280;4236;54.504;9.588;2022-10-16T06:44:32;100866.03;;;11.85;100.00
8398;BME280;4236;54.504;9.588;2022-10-16T06:47:00;100871.16;;;11.86;100.00
8398;BME280;4236;54.504;9.588;2022-10-16T06:49:27;100859.47;;;11.87;100.00
8398;BME280;4236;54.504;9.588;2022-10-16T06:51:55;100865.66;;;11.94;100.00
8398;BME280;4236;54.504;9.588;2022-10-16T06:54:22;100871.22;;;12.06;100.00
8398;BME280;4236;54.504;9.588;2022-10-16T06:56:51;100876.59;;;12.19;100.00
8398;BME280;4236;54.504;9.588;2022-10-16T06:59:20;100869.00;;;12.36;100.00
8398;BME280;4236;54.504;9.588;2022-10-16T07:01:49;100873.31;;;12.50;100.00
8398;BME280;4236;54.504;9.588;2022-10-16T07:04:17;100874.97;;;12.70;100.00
8398;BME280;4236;54.504;9.588;2022-10-16T07:06:44;100877.59;;;12.97;100.00
8398;BME280;4236;54.504;9.588;2022-10-16T07:09:12;100880.88;;;13.25;100.00
8398;BME280;4236;54.504;9.588;2022-10-16T07:11:40;100880.59;;;13.46;100.00
8398;BME280;4236;54.504;9.588;2022-10-16T07:14:15;100883.06;;;13.41;100.00
8398;BME280;4236;54.504;9.588;2022-10-16T07:16:43;100887.97;;;13.51;100.00
8398;BME280;4236;54.504;9.588;2022-10-16T07:19:12;100884.66;;;13.62;100.00
8398;BME280;4236;54.504;9.588;2022-10-16T07:21:41;100899.00;;;13.74;100.00
8398;BME280;4236;54.504;9.588;2022-10-16T07:24:12;100896.72;;;13.77;100.00
8398;BME280;4236;54.504;9.588;2022-10-16T07:26:41;100889.50;;;13.84;100.00
8398;BME280;4236;54.504;9.588;2022-10-16T07:29:13;100896.44;;;13.92;100.00
8398;BME280;4236;54.504;9.588;2022-10-16T07:31:41;100898.03;;;14.06;100.00
8398;BME280;4236;54.504;9.588;2022-10-16T07:34:09;100893.47;;;14.07;100.00
8398;BME280;4236;54.504;9.588;2022-10-16T07:36:38;100893.03;;;14.10;100.00
8398;BME280;4236;54.504;9.588;2022-10-16T07:39:09;100883.63;;;14.01;100.00
8398;BME280;4236;54.504;9.588;2022-10-16T07:41:36;100879.03;;;14.08;100.00
8398;BME280;4236;54.504;9.588;2022-10-16T07:44:04;100882.91;;;14.18;100.00
8398;BME280;4236;54.504;9.588;2022-10-16T07:46:32;100868.25;;;14.21;100.00
8398;BME280;4236;54.504;9.588;2022-10-16T07:49:02;100885.16;;;14.21;100.00
8398;BME280;4236;54.504;9.588;2022-10-16T07:51:30;100898.34;;;14.23;100.00
8398;BME280;4236;54.504;9.588;2022-10-16T07:53:58;100892.34;;;14.27;100.00
8398;BME280;4236;54.504;9.588;2022-10-16T07:56:26;100900.16;;;14.29;100.00
8398;BME280;4236;54.504;9.588;2022-10-16T07:58:54;100910.06;;;14.28;100.00
8398;BME280;4236;54.504;9.588;2022-10-16T08:01:23;100907.25;;;14.17;100.00
8398;BME280;4236;54.504;9.588;2022-10-16T08:03:52;100920.59;;;14.30;100.00
8398;BME280;4236;54.504;9.588;2022-10-16T08:06:21;100918.94;;;14.29;100.00
8398;BME280;4236;54.504;9.588;2022-10-16T08:08:54;100915.56;;;14.40;100.00
8398;BME280;4236;54.504;9.588;2022-10-16T08:11:23;100923.63;;;14.40;100.00
8398;BME280;4236;54.504;9.588;2022-10-16T08:13:50;100915.53;;;14.47;100.00
8398;BME280;4236;54.504;9.588;2022-10-16T08:16:18;100920.03;;;14.53;100.00
8398;BME280;4236;54.504;9.588;2022-10-16T08:18:46;100915.44;;;14.60;100.00
8398;BME280;4236;54.504;9.588;2022-10-16T08:21:15;100918.69;;;14.68;100.00
8398;BME280;4236;54.504;9.588;2022-10-16T08:23:47;100928.50;;;14.81;100.00
8398;BME280;4236;54.504;9.588;2022-10-16T08:26:25;100945.75;;;14.91;100.00
8398;BME280;4236;54.504;9.588;2022-10-16T08:28:53;100943.16;;;15.03;100.00
8398;BME280;4236;54.504;9.588;2022-10-16T08:31:22;100947.25;;;15.06;100.00
8398;BME280;4236;54.504;9.588;2022-10-16T08:33:49;100956.91;;;15.13;100.00
8398;BME280;4236;54.504;9.588;2022-10-16T08:36:18;100951.63;;;15.25;100.00
8398;BME280;4236;54.504;9.588;2022-10-16T08:38:47;100956.56;;;15.28;100.00
8398;BME280;4236;54.504;9.588;2022-10-16T08:41:40;100960.22;;;15.33;100.00
8398;BME280;4236;54.504;9.588;2022-10-16T08:47:26;100954.41;;;15.36;100.00
8398;BME280;4236;54.504;9.588;2022-10-16T08:50:09;100966.09;;;15.24;100.00
8398;BME280;4236;54.504;9.588;2022-10-16T08:52:40;100977.03;;;15.29;100.00
8398;BME280;4236;54.504;9.588;2022-10-16T08:55:28;100976.78;;;15.30;100.00
8398;BME280;4236;54.504;9.588;2022-10-16T08:57:58;100973.31;;;15.48;100.00
8398;BME280;4236;54.504;9.588;2022-10-16T09:00:26;100979.91;;;15.52;100.00
8398;BME280;4236;54.504;9.588;2022-10-16T09:03:02;100986.78;;;15.66;100.00
8398;BME280;4236;54.504;9.588;2022-10-16T09:05:45;100990.28;;;15.85;100.00
8398;BME280;4236;54.504;9.588;2022-10-16T09:08:21;100985.34;;;16.00;100.00
8398;BME280;4236;54.504;9.588;2022-10-16T09:10:56;100999.38;;;16.02;100.00
8398;BME280;4236;54.504;9.588;2022-10-16T09:13:29;100999.00;;;15.98;100.00
8398;BME280;4236;54.504;9.588;2022-10-16T09:16:11;100983.69;;;15.99;100.00
8398;BME280;4236;54.504;9.588;2022-10-16T09:18:48;100993.16;;;16.20;100.00
8398;BME280;4236;54.504;9.588;2022-10-16T09:21:21;101002.97;;;16.44;100.00
8398;BME280;4236;54.504;9.588;2022-10-16T09:23:50;101006.34;;;16.57;100.00
8398;BME280;4236;54.504;9.588;2022-10-16T09:26:18;100995.69;;;16.63;100.00
8398;BME280;4236;54.504;9.588;2022-10-16T09:28:51;100999.34;;;16.68;100.00
8398;BME280;4236;54.504;9.588;2022-10-16T09:31:21;101012.63;;;16.81;100.00
8398;BME280;4236;54.504;9.588;2022-10-16T09:33:52;101010.41;;;16.90;100.00
8398;BME280;4236;54.504;9.588;2022-10-16T09:36:21;100997.94;;;16.66;100.00
8398;BME280;4236;54.504;9.588;2022-10-16T09:39:02;101012.78;;;16.56;100.00
8398;BME280;4236;54.504;9.588;2022-10-16T09:41:30;101008.81;;;16.41;100.00
8398;BME280;4236;54.504;9.588;2022-10-16T09:44:00;101021.94;;;16.49;100.00
8398;BME280;4236;54.504;9.588;2022-10-16T09:46:30;101030.25;;;16.66;100.00
8398;BME280;4236;54.504;9.588;2022-10-16T09:48:59;101027.50;;;16.95;100.00
8398;BME280;4236;54.504;9.588;2022-10-16T09:51:29;101032.81;;;17.02;100.00
8398;BME280;4236;54.504;9.588;2022-10-16T09:53:59;101031.50;;;17.04;100.00
8398;BME280;4236;54.504;9.588;2022-10-16T09:56:28;101032.31;;;16.93;100.00
8398;BME280;4236;54.504;9.588;2022-10-16T09:58:58;101049.13;;;16.77;100.00
8398;BME280;4236;54.504;9.588;2022-10-16T10:01:30;101047.34;;;16.71;100.00
8398;BME280;4236;54.504;9.588;2022-10-16T10:03:59;101044.88;;;16.70;100.00
8398;BME280;4236;54.504;9.588;2022-10-16T10:06:32;101051.94;;;16.82;100.00
8398;BME280;4236;54.504;9.588;2022-10-16T10:09:04;101051.31;;;17.10;100.00
8398;BME280;4236;54.504;9.588;2022-10-16T10:11:41;101053.34;;;17.38;100.00
8398;BME280;4236;54.504;9.588;2022-10-16T10:14:16;101071.50;;;17.31;97.96
8398;BME280;4236;54.504;9.588;2022-10-16T10:16:47;101067.88;;;17.48;97.83
8398;BME280;4236;54.504;9.588;2022-10-16T10:19:16;101062.97;;;17.45;96.18
8398;BME280;4236;54.504;9.588;2022-10-16T10:21:44;101074.09;;;17.49;94.68
8398;BME280;4236;54.504;9.588;2022-10-16T10:24:13;101075.44;;;17.58;96.11
8398;BME280;4236;54.504;9.588;2022-10-16T10:26:49;101081.72;;;17.40;93.39
8398;BME280;4236;54.504;9.588;2022-10-16T10:29:25;101082.88;;;17.44;94.67
8398;BME280;4236;54.504;9.588;2022-10-16T10:32:04;101093.19;;;17.47;94.89
8398;BME280;4236;54.504;9.588;2022-10-16T10:34:52;101084.88;;;17.37;91.95
8398;BME280;4236;54.504;9.588;2022-10-16T10:37:36;101095.41;;;17.27;93.06
8398;BME280;4236;54.504;9.588;2022-10-16T10:40:30;101085.97;;;17.59;95.48
8398;BME280;4236;54.504;9.588;2022-10-16T10:43:05;101087.25;;;17.57;94.95
8398;BME280;4236;54.504;9.588;2022-10-16T10:45:42;101094.88;;;17.72;92.81
8398;BME280;4236;54.504;9.588;2022-10-16T10:48:24;101100.03;;;17.50;92.67
8398;BME280;4236;54.504;9.588;2022-10-16T10:51:01;101097.06;;;17.40;91.98
8398;BME280;4236;54.504;9.588;2022-10-16T10:53:38;101104.81;;;17.48;92.61
8398;BME280;4236;54.504;9.588;2022-10-16T10:56:19;101111.13;;;17.42;93.40
8398;BME280;4236;54.504;9.588;2022-10-16T10:59:14;101113.50;;;17.50;92.60
8398;BME280;4236;54.504;9.588;2022-10-16T11:01:50;101110.97;;;17.66;93.00
8398;BME280;4236;54.504;9.588;2022-10-16T11:04:35;101107.06;;;17.62;91.90
8398;BME280;4236;54.504;9.588;2022-10-16T11:07:14;101112.81;;;17.54;91.31
8398;BME280;4236;54.504;9.588;2022-10-16T11:09:45;101135.94;;;17.62;91.83
8398;BME280;4236;54.504;9.588;2022-10-16T11:12:18;101121.09;;;17.41;92.33
8398;BME280;4236;54.504;9.588;2022-10-16T11:14:49;101147.94;;;17.36;92.26
8398;BME280;4236;54.504;9.588;2022-10-16T11:17:25;101133.72;;;17.59;92.55
8398;BME280;4236;54.504;9.588;2022-10-16T11:19:59;101131.50;;;17.67;89.22
8398;BME280;4236;54.504;9.588;2022-10-16T11:22:32;101128.19;;;17.65;89.77
8398;BME280;4236;54.504;9.588;2022-10-16T11:25:06;101142.50;;;17.78;89.36
8398;BME280;4236;54.504;9.588;2022-10-16T11:27:43;101137.25;;;17.71;88.57
8398;BME280;4236;54.504;9.588;2022-10-16T11:30:18;101127.03;;;17.73;88.07
8398;BME280;4236;54.504;9.588;2022-10-16T11:33:04;101126.47;;;17.41;87.23
8398;BME280;4236;54.504;9.588;2022-10-16T11:35:42;101135.63;;;17.29;89.05
8398;BME280;4236;54.504;9.588;2022-10-16T11:38:21;101138.88;;;17.19;90.86
8398;BME280;4236;54.504;9.588;2022-10-16T11:40:54;101148.69;;;16.84;89.98
8398;BME280;4236;54.504;9.588;2022-10-16T11:43:28;101160.38;;;17.07;92.15
8398;BME280;4236;54.504;9.588;2022-10-16T11:45:59;101167.72;;;17.00;89.37
8398;BME280;4236;54.504;9.588;2022-10-16T11:48:39;101173.00;;;16.95;89.96
8398;BME280;4236;54.504;9.588;2022-10-16T11:51:14;101177.34;;;16.96;91.31
8398;BME280;4236;54.504;9.588;2022-10-16T11:53:47;101172.94;;;17.13;89.05
8398;BME280;4236;54.504;9.588;2022-10-16T11:56:20;101190.03;;;17.07;87.81
8398;BME280;4236;54.504;9.588;2022-10-16T11:58:54;101191.50;;;17.22;87.79
8398;BME280;4236;54.504;9.588;2022-10-16T12:01:29;101190.56;;;17.28;83.25
8398;BME280;4236;54.504;9.588;2022-10-16T12:04:16;101193.66;;;17.43;81.55
8398;BME280;4236;54.504;9.588;2022-10-16T12:06:51;101202.75;;;17.30;83.43
8398;BME280;4236;54.504;9.588;2022-10-16T12:09:25;101215.66;;;17.28;85.01
8398;BME280;4236;54.504;9.588;2022-10-16T12:11:53;101215.53;;;17.23;84.80
8398;BME280;4236;54.504;9.588;2022-10-16T12:14:34;101205.91;;;17.27;80.68
8398;BME280;4236;54.504;9.588;2022-10-16T12:17:25;101227.94;;;17.24;83.20
8398;BME280;4236;54.504;9.588;2022-10-16T12:20:00;101225.94;;;17.20;83.39
8398;BME280;4236;54.504;9.588;2022-10-16T12:22:31;101224.19;;;17.25;84.87
8398;BME280;4236;54.504;9.588;2022-10-16T12:25:05;101233.69;;;17.28;84.29
8398;BME280;4236;54.504;9.588;2022-10-16T12:27:33;101219.22;;;17.40;85.29
8398;BME280;4236;54.504;9.588;2022-10-16T12:30:03;101227.16;;;17.35;82.37
8398;BME280;4236;54.504;9.588;2022-10-16T12:32:33;101237.38;;;17.45;81.75
8398;BME280;4236;54.504;9.588;2022-10-16T12:35:19;101244.97;;;17.36;82.19
8398;BME280;4236;54.504;9.588;2022-10-16T12:37:49;101240.78;;;17.40;82.56
8398;BME280;4236;54.504;9.588;2022-10-16T12:40:27;101238.19;;;17.34;82.65
8398;BME280;4236;54.504;9.588;2022-10-16T12:42:55;101258.59;;;17.41;82.51
8398;BME280;4236;54.504;9.588;2022-10-16T12:45:27;101265.59;;;17.31;81.44
8398;BME280;4236;54.504;9.588;2022-10-16T12:47:55;101255.81;;;17.48;80.22
8398;BME280;4236;54.504;9.588;2022-10-16T12:50:27;101260.25;;;17.42;80.20
8398;BME280;4236;54.504;9.588;2022-10-16T12:52:58;101253.09;;;17.48;80.21
8398;BME280;4236;54.504;9.588;2022-10-16T12:55:26;101269.22;;;17.54;78.80
8398;BME280;4236;54.504;9.588;2022-10-16T12:58:09;101258.22;;;17.56;78.60
8398;BME280;4236;54.504;9.588;2022-10-16T13:00:44;101255.59;;;17.49;78.51
8398;BME280;4236;54.504;9.588;2022-10-16T13:03:40;101266.59;;;17.48;80.37
8398;BME280;4236;54.504;9.588;2022-10-16T13:06:20;101255.41;;;17.14;80.93
8398;BME280;4236;54.504;9.588;2022-10-16T13:09:05;101275.59;;;16.94;81.22
8398;BME280;4236;54.504;9.588;2022-10-16T13:11:52;101277.03;;;16.96;81.80
8398;BME280;4236;54.504;9.588;2022-10-16T13:17:20;101285.19;;;16.90;85.05
8398;BME280;4236;54.504;9.588;2022-10-16T13:19:59;101307.84;;;17.00;85.38
8398;BME280;4236;54.504;9.588;2022-10-16T13:22:34;101307.91;;;16.94;84.98
8398;BME280;4236;54.504;9.588;2022-10-16T13:25:21;101319.00;;;16.86;85.53
8398;BME280;4236;54.504;9.588;2022-10-16T13:27:54;101330.91;;;16.78;85.70
8398;BME280;4236;54.504;9.588;2022-10-16T13:30:24;101334.38;;;16.79;87.20
8398;BME280;4236;54.504;9.588;2022-10-16T13:33:00;101328.19;;;16.78;86.10